createdAt,value
2023-03-20T00:00:31.499Z,46.12
2023-03-20T00:03:19.639Z,46.12
2023-03-20T00:05:47.303Z,46.10
2023-03-20T00:08:14.450Z,46.07
2023-03-20T00:10:44.060Z,46.05
2023-03-20T00:13:21.293Z,46.20
2023-03-20T00:15:48.543Z,46.24
2023-03-20T00:18:23.339Z,46.32
2023-03-20T00:20:51.807Z,46.43
2023-03-20T00:23:19.674Z,46.58
2023-03-20T00:25:48.153Z,46.64
2023-03-20T00:28:32.664Z,46.71
2023-03-20T00:31:00.288Z,46.90
2023-03-20T00:33:28.447Z,46.95
2023-03-20T00:35:56.206Z,47.07
2023-03-20T00:38:23.654Z,47.21
2023-03-20T00:40:50.654Z,47.34
2023-03-20T00:43:20.360Z,47.34
2023-03-20T00:45:48.388Z,47.43
2023-03-20T00:48:17.034Z,47.41
2023-03-20T00:50:45.626Z,47.43
2023-03-20T00:53:14.338Z,47.36
2023-03-20T00:55:42.317Z,47.60
2023-03-20T00:58:14.458Z,47.46
2023-03-20T01:00:44.032Z,47.54
2023-03-20T01:03:18.771Z,47.52
2023-03-20T01:05:48.579Z,47.46
2023-03-20T01:08:21.427Z,47.53
2023-03-20T01:10:51.837Z,47.29
2023-03-20T01:13:25.305Z,47.40
2023-03-20T01:15:53.466Z,47.37
2023-03-20T01:18:21.984Z,47.39
2023-03-20T01:20:49.915Z,47.35
2023-03-20T01:23:20.832Z,47.61
2023-03-20T01:25:48.400Z,47.80
2023-03-20T01:28:18.579Z,47.61
2023-03-20T01:30:48.749Z,47.65
2023-03-20T01:33:18.182Z,47.79
2023-03-20T01:35:48.033Z,47.79
2023-03-20T01:38:19.981Z,47.91
2023-03-20T01:40:53.473Z,48.03
2023-03-20T01:43:24.846Z,48.09
2023-03-20T01:46:00.663Z,48.21
2023-03-20T01:48:38.086Z,48.26
2023-03-20T01:51:04.005Z,48.49
2023-03-20T01:53:32.094Z,48.76
2023-03-20T01:56:02.105Z,48.80
2023-03-20T01:58:58.403Z,49.14
2023-03-20T02:01:29.048Z,49.38
2023-03-20T02:03:59.558Z,49.74
2023-03-20T02:06:55.989Z,49.86
2023-03-20T02:09:31.780Z,50.01
2023-03-20T02:12:00.781Z,50.21
2023-03-20T02:14:29.571Z,50.28
2023-03-20T02:17:08.267Z,50.64
2023-03-20T02:20:04.103Z,50.89
2023-03-20T02:23:01.149Z,50.97
2023-03-20T02:26:12.553Z,50.99
2023-03-20T02:29:18.815Z,51.21
2023-03-20T02:32:23.178Z,51.42
2023-03-20T02:35:28.374Z,51.41
2023-03-20T02:38:22.070Z,51.47
2023-03-20T02:41:00.286Z,51.70
2023-03-20T02:43:34.837Z,51.71
2023-03-20T02:46:23.980Z,51.56
2023-03-20T02:48:58.281Z,51.62
2023-03-20T02:51:34.961Z,51.87
2023-03-20T02:54:19.909Z,51.94
2023-03-20T02:57:00.020Z,51.76
2023-03-20T02:59:34.458Z,52.02
2023-03-20T03:02:07.082Z,52.11
2023-03-20T03:04:39.889Z,52.04
2023-03-20T03:07:14.784Z,52.13
2023-03-20T03:09:47.412Z,52.20
2023-03-20T03:12:18.407Z,52.22
2023-03-20T03:14:49.329Z,52.24
2023-03-20T03:17:23.585Z,52.22
2023-03-20T03:19:55.107Z,52.37
2023-03-20T03:22:24.569Z,52.23
2023-03-20T03:24:53.925Z,52.23
2023-03-20T03:27:26.300Z,52.21
2023-03-20T03:29:57.220Z,52.26
2023-03-20T03:32:30.727Z,52.32
2023-03-20T03:34:59.916Z,52.27
2023-03-20T03:37:38.377Z,52.43
2023-03-20T03:40:14.946Z,52.12
2023-03-20T03:42:49.936Z,52.50
2023-03-20T03:45:21.405Z,52.38
2023-03-20T03:47:55.863Z,52.32
2023-03-20T03:50:29.982Z,52.34
2023-03-20T03:53:01.891Z,52.40
2023-03-20T03:55:37.261Z,52.25
2023-03-20T03:58:14.791Z,52.54
2023-03-20T04:00:46.575Z,52.43
2023-03-20T04:03:15.677Z,52.43
2023-03-20T04:05:46.308Z,52.44
2023-03-20T04:08:16.335Z,52.51
2023-03-20T04:10:43.723Z,52.54
2023-03-20T04:13:11.961Z,52.40
2023-03-20T04:15:39.623Z,52.33
2023-03-20T04:18:08.548Z,52.40
2023-03-20T04:20:38.313Z,52.35
2023-03-20T04:23:06.407Z,52.32
2023-03-20T04:25:34.372Z,52.26
2023-03-20T04:28:01.928Z,52.19
2023-03-20T04:31:05.295Z,52.22
2023-03-20T04:33:49.477Z,52.36
2023-03-20T04:36:31.100Z,52.12
2023-03-20T04:39:08.644Z,52.35
2023-03-20T04:41:35.865Z,52.37
2023-03-20T04:44:06.292Z,52.63
2023-03-20T04:46:35.132Z,52.43
2023-03-20T04:49:06.631Z,52.60
2023-03-20T04:51:34.035Z,52.46
2023-03-20T04:54:01.397Z,52.48
2023-03-20T04:56:28.849Z,52.73
2023-03-20T04:59:08.312Z,52.52
2023-03-20T05:01:36.073Z,52.55
2023-03-20T05:04:03.339Z,52.69
2023-03-20T05:06:33.628Z,52.53
2023-03-20T05:09:01.589Z,52.46
2023-03-20T05:11:31.000Z,52.38
2023-03-20T05:14:33.509Z,52.37
2023-03-20T05:17:19.862Z,52.31
2023-03-20T05:20:07.358Z,52.28
2023-03-20T05:22:41.934Z,52.01
2023-03-20T05:25:19.352Z,51.78
2023-03-20T05:28:18.467Z,51.76
2023-03-20T05:31:09.696Z,51.21
2023-03-20T05:34:05.388Z,50.49
2023-03-20T05:36:58.444Z,49.56
2023-03-20T05:39:51.366Z,48.61
2023-03-20T05:42:34.227Z,48.02
2023-03-20T05:45:18.592Z,46.98
2023-03-20T05:48:11.358Z,45.91
2023-03-20T05:50:56.523Z,45.23
2023-03-20T05:53:55.752Z,44.68
2023-03-20T05:56:23.059Z,43.96
2023-03-20T05:59:10.754Z,43.56
2023-03-20T06:01:54.028Z,44.10
2023-03-20T06:04:25.951Z,43.44
2023-03-20T06:07:03.103Z,43.18
2023-03-20T06:09:30.204Z,42.64
2023-03-20T06:11:57.637Z,42.13
2023-03-20T06:14:25.166Z,41.54
2023-03-20T06:16:57.440Z,41.01
2023-03-20T06:19:26.119Z,40.81
2023-03-20T06:21:53.383Z,40.14
2023-03-20T06:24:21.499Z,39.13
2023-03-20T06:26:48.964Z,37.90
2023-03-20T06:29:16.109Z,36.99
2023-03-20T06:31:43.931Z,35.96
2023-03-20T06:34:14.920Z,34.86
2023-03-20T06:36:45.979Z,34.19
2023-03-20T06:39:19.562Z,33.03
2023-03-20T06:41:47.113Z,31.47
2023-03-20T06:44:14.448Z,30.88
2023-03-20T06:47:01.966Z,29.77
2023-03-20T06:49:29.151Z,29.37
2023-03-20T06:51:56.198Z,29.02
2023-03-20T06:54:26.198Z,29.18
2023-03-20T06:56:53.672Z,29.27
2023-03-20T06:59:21.757Z,29.53
2023-03-20T07:01:49.522Z,29.80
2023-03-20T07:04:17.431Z,30.71
2023-03-20T07:06:49.050Z,31.22
2023-03-20T07:09:17.798Z,31.37
2023-03-20T07:11:45.129Z,31.88
2023-03-20T07:14:12.667Z,32.26
2023-03-20T07:16:47.376Z,32.63
2023-03-20T07:19:15.329Z,32.98
2023-03-20T07:21:44.567Z,33.33
2023-03-20T07:24:12.181Z,33.64
2023-03-20T07:26:41.323Z,33.50
2023-03-20T07:29:08.538Z,32.93
2023-03-20T07:31:36.580Z,32.12
2023-03-20T07:34:16.701Z,31.70
2023-03-20T07:36:44.558Z,31.56
2023-03-20T07:39:13.290Z,31.52
2023-03-20T07:41:42.328Z,31.52
2023-03-20T07:44:10.630Z,31.46
2023-03-20T07:46:51.401Z,31.42
2023-03-20T07:49:18.898Z,31.73
2023-03-20T07:51:46.291Z,31.99
2023-03-20T07:54:14.010Z,32.41
2023-03-20T07:56:41.445Z,32.43
2023-03-20T07:59:08.759Z,32.60
2023-03-20T08:01:36.434Z,32.65
2023-03-20T08:04:03.843Z,32.80
2023-03-20T08:06:31.008Z,32.47
2023-03-20T08:08:59.017Z,31.90
2023-03-20T08:11:26.742Z,31.51
2023-03-20T08:13:53.737Z,30.89
2023-03-20T08:16:20.982Z,30.12
2023-03-20T08:18:48.479Z,29.37
2023-03-20T08:21:15.945Z,28.67
2023-03-20T08:23:43.343Z,28.25
2023-03-20T08:26:10.713Z,27.58
2023-03-20T08:28:46.955Z,27.14
2023-03-20T08:31:15.346Z,26.75
2023-03-20T08:33:42.778Z,26.37
2023-03-20T08:36:11.704Z,26.31
2023-03-20T08:38:39.052Z,26.01
2023-03-20T08:41:07.441Z,25.44
2023-03-20T08:43:34.736Z,25.58
2023-03-20T08:46:02.260Z,25.59
2023-03-20T08:48:29.652Z,25.14
2023-03-20T08:50:57.254Z,24.97
2023-03-20T08:53:24.776Z,24.78
2023-03-20T08:55:53.254Z,24.22
2023-03-20T08:58:21.120Z,24.22
2023-03-20T09:00:49.039Z,24.32
2023-03-20T09:03:18.265Z,23.87
2023-03-20T09:05:47.228Z,23.99
2023-03-20T09:08:15.138Z,23.76
2023-03-20T09:10:42.567Z,23.30
2023-03-20T09:13:25.754Z,23.33
2023-03-20T09:15:54.559Z,23.47
2023-03-20T09:18:22.314Z,23.26
2023-03-20T09:20:50.029Z,23.34
2023-03-20T09:23:19.050Z,23.27
2023-03-20T09:25:46.401Z,23.44
2023-03-20T09:28:13.572Z,23.64
2023-03-20T09:30:43.801Z,24.03
2023-03-20T09:33:11.641Z,24.56
2023-03-20T09:35:39.004Z,24.92
2023-03-20T09:38:06.925Z,24.99
2023-03-20T09:40:39.476Z,25.53
2023-03-20T09:43:17.870Z,25.79
2023-03-20T09:45:54.362Z,25.90
2023-03-20T09:48:24.673Z,26.35
2023-03-20T09:50:59.777Z,26.44
2023-03-20T09:53:33.097Z,26.50
2023-03-20T09:56:01.046Z,27.19
2023-03-20T09:58:32.549Z,27.42
2023-03-20T10:01:03.163Z,27.72
2023-03-20T10:03:38.175Z,28.41
2023-03-20T10:06:08.935Z,28.61
2023-03-20T10:08:39.116Z,28.98
2023-03-20T10:11:20.671Z,29.26
2023-03-20T10:14:00.411Z,29.70
2023-03-20T10:16:38.766Z,30.19
2023-03-20T10:19:12.718Z,30.79
2023-03-20T10:21:46.337Z,31.18
2023-03-20T10:24:21.276Z,31.68
2023-03-20T10:26:51.448Z,32.08
2023-03-20T10:29:26.557Z,32.68
2023-03-20T10:32:01.466Z,33.11
2023-03-20T10:34:42.786Z,33.68
2023-03-20T10:37:27.452Z,33.95
2023-03-20T10:40:10.702Z,34.48
2023-03-20T10:42:41.138Z,34.66
2023-03-20T10:45:16.370Z,34.45
2023-03-20T10:47:46.211Z,34.32
2023-03-20T10:50:20.653Z,34.27
2023-03-20T10:52:51.098Z,34.39
2023-03-20T10:55:21.553Z,33.92
2023-03-20T10:57:53.988Z,33.74
2023-03-20T11:00:24.791Z,33.88
2023-03-20T11:02:52.098Z,33.64
2023-03-20T11:05:31.810Z,33.75
2023-03-20T11:08:06.886Z,33.26
2023-03-20T11:10:37.230Z,32.83
2023-03-20T11:13:16.920Z,32.46
2023-03-20T11:15:44.140Z,32.06
2023-03-20T11:18:15.118Z,31.70
2023-03-20T11:20:48.466Z,31.84
2023-03-20T11:23:18.863Z,31.87
2023-03-20T11:25:54.332Z,31.41
2023-03-20T11:28:32.470Z,31.53
2023-03-20T11:31:05.690Z,31.63
2023-03-20T11:33:33.464Z,31.48
2023-03-20T11:36:01.399Z,31.50
2023-03-20T11:38:31.445Z,31.38
2023-03-20T11:40:58.652Z,31.41
2023-03-20T11:43:28.746Z,31.82
2023-03-20T11:46:00.893Z,31.82
2023-03-20T11:48:38.610Z,31.87
2023-03-20T11:51:10.154Z,32.06
2023-03-20T11:53:41.059Z,32.10
2023-03-20T11:56:13.371Z,32.11
2023-03-20T11:58:52.229Z,31.96
2023-03-20T12:01:19.331Z,32.25
2023-03-20T12:03:55.511Z,32.53
2023-03-20T12:06:27.456Z,32.43
2023-03-20T12:09:02.051Z,32.32
2023-03-20T12:11:44.683Z,32.49
2023-03-20T12:14:22.754Z,33.56
2023-03-20T12:16:54.734Z,33.23
2023-03-20T12:19:27.087Z,33.52
2023-03-20T12:22:02.170Z,34.33
2023-03-20T12:24:38.086Z,34.11
2023-03-20T12:27:18.601Z,33.84
2023-03-20T12:29:50.101Z,33.58
2023-03-20T12:32:24.463Z,34.65
2023-03-20T12:34:56.886Z,34.67
2023-03-20T12:37:25.221Z,35.04
2023-03-20T12:39:55.654Z,35.30
2023-03-20T12:42:34.432Z,35.84
2023-03-20T12:45:07.320Z,36.41
2023-03-20T12:48:16.971Z,36.91
2023-03-20T12:50:47.322Z,37.52
2023-03-20T12:53:30.537Z,38.00
2023-03-20T12:56:07.713Z,38.58
2023-03-20T12:58:42.140Z,38.99
2023-03-20T13:01:15.498Z,39.45
2023-03-20T13:03:55.461Z,39.66
2023-03-20T13:06:33.627Z,39.90
2023-03-20T13:09:27.574Z,40.26
2023-03-20T13:12:04.761Z,40.58
2023-03-20T13:14:43.129Z,40.85
2023-03-20T13:17:18.406Z,41.25
2023-03-20T13:19:56.645Z,41.55
2023-03-20T13:22:33.564Z,42.06
2023-03-20T13:25:03.742Z,42.46
2023-03-20T13:27:38.768Z,42.93
2023-03-20T13:30:14.897Z,43.56
2023-03-20T13:32:56.534Z,44.05
2023-03-20T13:35:41.161Z,44.53
2023-03-20T13:38:18.797Z,45.16
2023-03-20T13:40:48.311Z,45.81
2023-03-20T13:43:29.988Z,46.45
2023-03-20T13:46:04.872Z,46.90
2023-03-20T13:48:36.712Z,47.43
2023-03-20T13:51:12.203Z,47.97
2023-03-20T13:53:49.942Z,48.52
2023-03-20T13:56:28.339Z,49.22
2023-03-20T13:59:27.815Z,49.84
2023-03-20T14:02:02.308Z,50.78
2023-03-20T14:04:32.049Z,51.14
2023-03-20T14:07:00.619Z,51.64
2023-03-20T14:09:35.380Z,52.01
2023-03-20T14:12:06.390Z,52.57
2023-03-20T14:14:41.847Z,53.04
2023-03-20T14:17:22.649Z,53.41
2023-03-20T14:19:51.595Z,53.52
2023-03-20T14:22:22.296Z,53.61
2023-03-20T14:24:58.450Z,54.14
2023-03-20T14:27:45.204Z,54.39
2023-03-20T14:30:46.784Z,54.50
2023-03-20T14:33:31.296Z,54.84
2023-03-20T14:36:22.270Z,55.21
2023-03-20T14:38:58.075Z,55.36
2023-03-20T14:41:30.780Z,55.64
2023-03-20T14:44:17.036Z,56.08
2023-03-20T14:46:52.410Z,56.48
2023-03-20T14:49:48.143Z,56.98
2023-03-20T14:52:44.164Z,57.42
2023-03-20T14:55:49.244Z,57.79
2023-03-20T14:58:44.816Z,58.21
2023-03-20T15:01:20.106Z,58.72
2023-03-20T15:03:52.384Z,58.92
2023-03-20T15:06:21.336Z,59.36
2023-03-20T15:08:52.104Z,59.22
2023-03-20T15:11:21.251Z,59.21
2023-03-20T15:13:50.764Z,59.33
2023-03-20T15:16:26.543Z,59.31
2023-03-20T15:18:55.981Z,59.32
2023-03-20T15:21:30.978Z,59.44
2023-03-20T15:23:58.746Z,59.80
2023-03-20T15:26:27.132Z,59.98
2023-03-20T15:29:01.815Z,60.40
2023-03-20T15:31:32.845Z,60.53
2023-03-20T15:34:01.297Z,60.51
2023-03-20T15:36:31.600Z,60.54
2023-03-20T15:39:07.193Z,60.87
2023-03-20T15:41:38.956Z,61.22
2023-03-20T15:44:18.991Z,61.73
2023-03-20T15:46:55.029Z,61.96
2023-03-20T15:49:23.487Z,62.28
2023-03-20T15:51:52.688Z,62.52
2023-03-20T15:54:21.149Z,62.83
2023-03-20T15:56:58.238Z,63.04
2023-03-20T15:59:32.068Z,63.33
2023-03-20T16:02:01.951Z,63.53
2023-03-20T16:04:30.038Z,64.22
2023-03-20T16:07:00.239Z,64.26
2023-03-20T16:09:28.697Z,64.58
2023-03-20T16:12:01.456Z,64.86
2023-03-20T16:14:31.305Z,65.16
2023-03-20T16:17:01.189Z,65.40
2023-03-20T16:19:30.232Z,65.62
2023-03-20T16:22:00.660Z,66.06
2023-03-20T16:24:32.984Z,66.40
2023-03-20T16:27:00.737Z,66.70
2023-03-20T16:29:31.220Z,67.11
2023-03-20T16:32:04.124Z,67.37
2023-03-20T16:34:35.727Z,67.66
2023-03-20T16:37:08.842Z,67.97
2023-03-20T16:39:36.028Z,68.19
2023-03-20T16:42:22.894Z,68.31
2023-03-20T16:44:54.540Z,68.65
2023-03-20T16:47:24.927Z,69.01
2023-03-20T16:50:19.185Z,69.25
2023-03-20T16:52:58.571Z,69.45
2023-03-20T16:55:29.359Z,69.63
2023-03-20T16:58:00.280Z,69.67
2023-03-20T17:00:31.073Z,69.98
2023-03-20T17:03:08.588Z,70.07
2023-03-20T17:05:49.334Z,70.34
2023-03-20T17:08:18.851Z,70.51
2023-03-20T17:10:51.600Z,70.65
2023-03-20T17:13:18.945Z,70.74
2023-03-20T17:15:47.121Z,70.82
2023-03-20T17:18:16.261Z,70.72
2023-03-20T17:20:43.839Z,70.98
2023-03-20T17:23:16.619Z,71.03
2023-03-20T17:25:44.300Z,71.22
2023-03-20T17:28:17.166Z,71.34
2023-03-20T17:30:46.240Z,71.43
2023-03-20T17:33:15.684Z,71.58
2023-03-20T17:35:43.140Z,71.72
2023-03-20T17:38:16.171Z,71.82
2023-03-20T17:40:43.248Z,71.99
2023-03-20T17:43:13.014Z,72.28
2023-03-20T17:45:40.768Z,72.37
2023-03-20T17:48:15.732Z,72.64
2023-03-20T17:50:43.117Z,72.92
2023-03-20T17:53:14.630Z,73.17
2023-03-20T17:55:41.877Z,73.45
2023-03-20T17:58:13.223Z,73.63
2023-03-20T18:00:49.830Z,73.83
2023-03-20T18:03:18.478Z,73.75
2023-03-20T18:05:46.342Z,73.91
2023-03-20T18:08:20.096Z,73.87
2023-03-20T18:10:47.510Z,73.83
2023-03-20T18:13:14.870Z,73.80
2023-03-20T18:15:42.661Z,73.76
2023-03-20T18:18:10.664Z,73.75
2023-03-20T18:20:41.388Z,73.74
2023-03-20T18:23:09.301Z,73.67
2023-03-20T18:25:37.067Z,73.75
2023-03-20T18:28:06.573Z,73.73
2023-03-20T18:30:37.789Z,73.66
2023-03-20T18:33:06.386Z,73.71
2023-03-20T18:35:37.518Z,73.88
2023-03-20T18:38:06.233Z,73.86
2023-03-20T18:40:37.178Z,73.75
2023-03-20T18:43:07.456Z,73.73
2023-03-20T18:45:38.893Z,73.62
2023-03-20T18:48:07.275Z,73.69
2023-03-20T18:50:37.979Z,73.59
2023-03-20T18:53:07.481Z,73.48
2023-03-20T18:55:35.745Z,73.44
2023-03-20T18:58:04.231Z,73.37
2023-03-20T19:00:38.179Z,73.36
2023-03-20T19:03:07.587Z,73.32
2023-03-20T19:05:35.001Z,73.28
2023-03-20T19:08:05.331Z,73.16
2023-03-20T19:10:36.252Z,73.06
2023-03-20T19:13:05.413Z,73.04
2023-03-20T19:15:36.281Z,72.96
2023-03-20T19:18:04.880Z,73.01
2023-03-20T19:20:37.337Z,73.00
2023-03-20T19:23:07.366Z,72.99
2023-03-20T19:25:38.952Z,73.06
2023-03-20T19:28:07.724Z,73.11
2023-03-20T19:30:38.046Z,73.13
2023-03-20T19:33:14.702Z,73.22
2023-03-20T19:36:03.274Z,73.38
2023-03-20T19:38:31.501Z,73.57
2023-03-20T19:41:00.096Z,73.64
2023-03-20T19:43:30.626Z,73.80
2023-03-20T19:45:59.255Z,74.15
2023-03-20T19:48:46.005Z,74.33
2023-03-20T19:51:18.302Z,74.74
2023-03-20T19:53:46.703Z,74.89
2023-03-20T19:56:14.780Z,75.28
2023-03-20T19:58:43.414Z,75.51
2023-03-20T20:01:18.645Z,75.77
2023-03-20T20:03:46.659Z,76.05
2023-03-20T20:06:14.562Z,76.21
2023-03-20T20:08:48.730Z,76.52
2023-03-20T20:11:16.986Z,76.74
2023-03-20T20:14:07.182Z,77.05
2023-03-20T20:16:34.033Z,77.15
2023-03-20T20:19:01.628Z,77.36
2023-03-20T20:24:17.413Z,77.48
2023-03-20T20:26:53.765Z,77.59
2023-03-20T20:29:22.264Z,77.69
2023-03-20T20:31:49.451Z,77.61
2023-03-20T20:39:51.987Z,77.87
2023-03-20T20:42:20.615Z,77.99
2023-03-20T20:44:47.799Z,77.95
2023-03-20T20:47:15.492Z,78.06
2023-03-20T20:49:43.224Z,78.18
2023-03-20T20:52:11.400Z,78.20
2023-03-20T20:54:42.382Z,78.36
2023-03-20T20:57:10.693Z,78.43
2023-03-20T20:59:38.340Z,78.56
2023-03-20T21:02:10.780Z,78.56
2023-03-20T21:04:38.247Z,78.64
2023-03-20T21:07:11.056Z,78.76
2023-03-20T21:09:42.573Z,78.89
2023-03-20T21:12:34.759Z,79.00
2023-03-20T21:15:06.853Z,78.99
2023-03-20T21:17:34.223Z,79.04
2023-03-20T21:20:15.234Z,79.16
2023-03-20T21:22:42.531Z,79.21
2023-03-20T21:25:15.022Z,79.18
2023-03-20T21:27:42.591Z,79.21
2023-03-20T21:30:11.545Z,79.31
2023-03-20T21:32:39.987Z,79.15
2023-03-20T21:35:18.789Z,79.19
2023-03-20T21:38:37.867Z,79.19
2023-03-20T21:40:36.834Z,79.23
2023-03-20T21:43:04.896Z,79.29
2023-03-20T21:46:19.045Z,79.29
2023-03-20T21:48:54.582Z,79.38
2023-03-20T21:54:51.270Z,79.62
2023-03-20T21:57:23.149Z,79.70
2023-03-20T22:02:25.308Z,79.81
2023-03-20T22:05:41.840Z,79.94
2023-03-20T22:11:42.406Z,80.02
2023-03-20T22:14:37.220Z,80.07
2023-03-20T22:17:25.870Z,80.23
2023-03-20T22:28:15.770Z,80.26
2023-03-20T22:34:16.214Z,80.34
2023-03-20T22:47:16.977Z,80.43
2023-03-20T22:49:44.455Z,80.37
2023-03-20T22:52:37.869Z,80.24
2023-03-20T22:55:11.399Z,80.34
2023-03-20T22:57:45.532Z,80.23
2023-03-20T23:00:18.855Z,80.35
2023-03-20T23:02:47.595Z,80.37
2023-03-20T23:05:15.157Z,80.39
2023-03-20T23:07:43.239Z,80.55
2023-03-20T23:10:14.420Z,80.58
2023-03-20T23:12:44.071Z,80.61
2023-03-20T23:15:12.967Z,80.55
2023-03-20T23:17:40.290Z,80.74
2023-03-20T23:20:14.450Z,80.73
2023-03-20T23:22:44.363Z,80.72
2023-03-20T23:25:18.637Z,80.78
2023-03-20T23:27:54.668Z,80.87
2023-03-20T23:30:38.107Z,80.91
2023-03-20T23:33:07.784Z,80.99
2023-03-20T23:35:37.698Z,81.15
2023-03-20T23:38:04.906Z,81.14
2023-03-20T23:40:32.390Z,81.16
2023-03-20T23:42:59.574Z,81.24
2023-03-20T23:45:26.834Z,81.05
2023-03-20T23:47:54.256Z,81.17
2023-03-20T23:50:42.830Z,81.23
2023-03-20T23:53:19.989Z,81.36
2023-03-20T23:55:49.255Z,81.41
2023-03-20T23:58:18.223Z,81.43
